Time;durP1;ratioP1;P1;durP2;ratioP2;P2;SDS_P1;SDS_P2;PMS_P1;PMS_P2;Temp;Humidity;BMP_temperature;BMP_pressure;BME280_temperature;BME280_humidity;BME280_pressure;Samples;Min_cycle;Max_cycle;Signal;HPM_P1;HPM_P2
2023/02/26 00:00:49;;;;;;;;;;;;;;;10.40;47.16;100144.19;4931759;28;100754;-66
2023/02/26 00:03:15;;;;;;;;;;;;;;;10.39;47.27;100150.66;4917420;28;97915;-66
2023/02/26 00:05:41;;;;;;;;;;;;;;;10.38;47.48;100149.06;4952483;28;98330;-66
2023/02/26 00:08:07;;;;;;;;;;;;;;;10.38;47.42;100159.03;4925701;28;97997;-66
2023/02/26 00:10:34;;;;;;;;;;;;;;;10.37;47.61;100147.41;4906899;28;98305;-66
2023/02/26 00:13:00;;;;;;;;;;;;;;;10.38;47.24;100159.03;4924160;28;99770;-66
2023/02/26 00:15:26;;;;;;;;;;;;;;;10.36;47.14;100155.78;4906857;28;98324;-66
2023/02/26 00:18:08;;;;;;;;;;;;;;;10.35;47.69;100155.00;4927598;28;98433;-66
2023/02/26 00:20:35;;;;;;;;;;;;;;;10.35;47.06;100162.28;4939261;28;98028;-66
2023/02/26 00:23:02;;;;;;;;;;;;;;;10.34;47.45;100164.16;4922717;28;98618;-66
2023/02/26 00:25:28;;;;;;;;;;;;;;;10.34;47.58;100174.13;4905294;28;97998;-66
2023/02/26 00:27:54;;;;;;;;;;;;;;;10.34;47.08;100176.81;4905812;28;101615;-66
2023/02/26 00:30:20;;;;;;;;;;;;;;;10.32;47.36;100169.81;4912835;28;98188;-66
2023/02/26 00:32:47;;;;;;;;;;;;;;;10.32;47.56;100185.97;4922307;28;98048;-66
2023/02/26 00:35:14;;;;;;;;;;;;;;;10.31;47.86;100187.06;4926176;28;99368;-66
2023/02/26 00:37:40;;;;;;;;;;;;;;;10.31;47.45;100186.25;4933405;28;98548;-66
2023/02/26 00:40:21;;;;;;;;;;;;;;;10.30;47.50;100190.84;4965092;28;98578;-66
2023/02/26 00:42:47;;;;;;;;;;;;;;;10.30;47.26;100192.72;4958761;28;98432;-66
2023/02/26 00:45:14;;;;;;;;;;;;;;;10.29;47.40;100189.19;4941091;28;98111;-66
2023/02/26 00:48:15;;;;;;;;;;;;;;;10.30;47.57;100200.81;4915190;28;109291;-66
2023/02/26 00:50:48;;;;;;;;;;;;;;;10.28;47.13;100192.19;4927860;28;97849;-66
2023/02/26 00:53:46;;;;;;;;;;;;;;;10.28;47.68;100197.56;4930819;28;98171;-66
2023/02/26 00:56:13;;;;;;;;;;;;;;;10.28;47.81;100202.94;4910997;28;98104;-66
2023/02/26 00:58:39;;;;;;;;;;;;;;;10.28;47.08;100205.66;4932330;28;97987;-66
2023/02/26 01:01:06;;;;;;;;;;;;;;;10.29;47.19;100207.25;4917800;28;99486;-66
2023/02/26 01:03:32;;;;;;;;;;;;;;;10.27;47.27;100210.22;4927523;28;99252;-66
2023/02/26 01:05:58;;;;;;;;;;;;;;;10.27;47.51;100212.91;4909904;28;99671;-66
2023/02/26 01:08:31;;;;;;;;;;;;;;;10.27;47.25;100214.81;4911549;28;98110;-66
2023/02/26 01:10:57;;;;;;;;;;;;;;;10.27;47.84;100217.50;4916716;28;98118;-66
2023/02/26 01:13:24;;;;;;;;;;;;;;;10.27;47.05;100220.19;4923297;28;99953;-66
2023/02/26 01:15:54;;;;;;;;;;;;;;;10.27;47.63;100222.91;4925092;28;98066;-66
2023/02/26 01:18:31;;;;;;;;;;;;;;;10.27;47.74;100223.69;4935810;28;97929;-66
2023/02/26 01:21:02;;;;;;;;;;;;;;;10.27;47.72;100222.91;4928660;28;98108;-66
2023/02/26 01:23:34;;;;;;;;;;;;;;;10.27;47.42;100228.28;4932232;28;97897;-66
2023/02/26 01:26:05;;;;;;;;;;;;;;;10.27;47.48;100228.28;4924572;28;98255;-66
2023/02/26 01:28:32;;;;;;;;;;;;;;;10.26;47.57;100235.56;4924158;28;104229;-66
2023/02/26 01:31:00;;;;;;;;;;;;;;;10.25;47.07;100231.22;4923944;28;98068;-66
2023/02/26 01:33:33;;;;;;;;;;;;;;;10.25;47.75;100225.84;4911246;28;98071;-66
2023/02/26 01:36:07;;;;;;;;;;;;;;;10.25;47.68;100233.91;4938906;28;98711;-66
2023/02/26 01:38:56;;;;;;;;;;;;;;;10.25;47.01;100233.91;4931893;28;100494;-66
2023/02/26 01:41:47;;;;;;;;;;;;;;;10.23;47.15;100236.06;4941490;28;98370;-67
2023/02/26 01:44:19;;;;;;;;;;;;;;;10.24;47.76;100243.06;4936287;28;98089;-66
2023/02/26 01:47:02;;;;;;;;;;;;;;;10.24;47.28;100244.94;4921672;28;98041;-66
2023/02/26 01:49:29;;;;;;;;;;;;;;;10.24;47.07;100253.03;4930637;28;98242;-66
2023/02/26 01:52:02;;;;;;;;;;;;;;;10.24;47.68;100258.41;4920328;28;98163;-67
2023/02/26 01:54:33;;;;;;;;;;;;;;;10.24;47.52;100263.81;4946131;28;97988;-66
2023/02/26 01:57:03;;;;;;;;;;;;;;;10.23;47.48;100265.69;4924310;28;97924;-66
2023/02/26 01:59:30;;;;;;;;;;;;;;;10.24;47.11;100271.88;4955009;28;98894;-66
2023/02/26 02:01:57;;;;;;;;;;;;;;;10.23;47.00;100276.47;4903897;28;98067;-67
2023/02/26 02:04:23;;;;;;;;;;;;;;;10.23;47.66;100279.16;4914122;28;99375;-67
2023/02/26 02:06:49;;;;;;;;;;;;;;;10.22;47.69;100277.56;4907970;28;97969;-66
2023/02/26 02:09:15;;;;;;;;;;;;;;;10.22;47.40;100276.75;4913250;28;98901;-66
2023/02/26 02:12:06;;;;;;;;;;;;;;;10.21;47.33;100280.50;4917035;28;98002;-66
2023/02/26 02:14:55;;;;;;;;;;;;;;;10.21;47.72;100286.69;4915081;28;97938;-66
2023/02/26 02:17:56;;;;;;;;;;;;;;;10.19;46.93;100283.47;4911438;28;98136;-66
2023/02/26 02:20:48;;;;;;;;;;;;;;;10.17;47.35;100279.41;4938249;28;98103;-67
2023/02/26 02:23:42;;;;;;;;;;;;;;;10.15;47.36;100289.69;4942678;28;99770;-66
2023/02/26 02:26:30;;;;;;;;;;;;;;;10.13;47.42;100292.63;4926369;28;98042;-67
2023/02/26 02:29:09;;;;;;;;;;;;;;;10.13;47.14;100306.09;4943051;28;98825;-67
2023/02/26 02:32:04;;;;;;;;;;;;;;;10.12;47.36;100301.78;4926926;28;97927;-67
2023/02/26 02:34:39;;;;;;;;;;;;;;;10.10;47.39;100306.66;4930324;28;98084;-67
2023/02/26 02:37:22;;;;;;;;;;;;;;;10.09;47.33;100307.69;4925035;28;98408;-66
2023/02/26 02:39:52;;;;;;;;;;;;;;;10.09;46.95;100310.38;4929842;28;97903;-66
2023/02/26 02:42:31;;;;;;;;;;;;;;;10.08;47.17;100306.91;4937464;28;100199;-66
2023/02/26 02:45:03;;;;;;;;;;;;;;;10.09;47.53;100323.84;4916783;28;98006;-66
2023/02/26 02:47:31;;;;;;;;;;;;;;;10.06;47.69;100317.13;4924640;28;98126;-67
2023/02/26 02:49:59;;;;;;;;;;;;;;;10.08;47.25;100316.84;4923788;28;98075;-67
2023/02/26 02:52:30;;;;;;;;;;;;;;;10.07;47.31;100321.44;4945255;28;100250;-67
2023/02/26 02:54:59;;;;;;;;;;;;;;;10.06;47.23;100325.22;4939255;28;98225;-67
2023/02/26 02:57:33;;;;;;;;;;;;;;;10.05;47.63;100328.97;4912359;28;98830;-67
2023/02/26 03:00:04;;;;;;;;;;;;;;;10.05;47.41;100336.25;4913128;28;98565;-68
2023/02/26 03:02:48;;;;;;;;;;;;;;;10.05;47.76;100334.34;4911281;28;100653;-67
2023/02/26 03:05:14;;;;;;;;;;;;;;;10.04;47.44;100340.00;4938346;28;98074;-67
2023/02/26 03:07:52;;;;;;;;;;;;;;;10.03;47.58;100335.72;4907535;28;98023;-68
2023/02/26 03:10:18;;;;;;;;;;;;;;;10.02;47.13;100344.84;4930601;28;98038;-67
2023/02/26 03:12:44;;;;;;;;;;;;;;;10.01;47.59;100349.44;4909390;28;98257;-67
2023/02/26 03:15:11;;;;;;;;;;;;;;;10.01;47.29;100352.13;4913709;28;98181;-67
2023/02/26 03:18:03;;;;;;;;;;;;;;;10.01;47.44;100367.47;4932347;28;98132;-67
2023/02/26 03:20:34;;;;;;;;;;;;;;;10.01;47.62;100364.78;4926287;28;99274;-67
2023/02/26 03:23:22;;;;;;;;;;;;;;;10.00;47.50;100363.16;4905819;28;98059;-67
2023/02/26 03:25:52;;;;;;;;;;;;;;;10.00;47.38;100379.31;4920908;28;98152;-67
2023/02/26 03:28:46;;;;;;;;;;;;;;;10.00;47.83;100382.81;4939769;28;98500;-67
2023/02/26 03:31:21;;;;;;;;;;;;;;;9.98;47.55;100387.69;4936491;28;98927;-67
2023/02/26 03:34:00;;;;;;;;;;;;;;;9.98;47.29;100393.06;4924259;28;97896;-67
2023/02/26 03:36:36;;;;;;;;;;;;;;;9.99;47.79;100407.34;4923696;28;105742;-67
2023/02/26 03:39:19;;;;;;;;;;;;;;;9.97;47.39;100401.38;4922253;28;99343;-66
2023/02/26 03:41:53;;;;;;;;;;;;;;;9.97;47.41;100406.78;4906113;28;98375;-66
2023/02/26 03:44:24;;;;;;;;;;;;;;;9.96;47.81;100407.84;4925449;28;98022;-66
2023/02/26 03:47:02;;;;;;;;;;;;;;;9.95;47.24;100412.44;4934694;28;99582;-66
2023/02/26 03:49:37;;;;;;;;;;;;;;;9.95;47.51;100419.72;4909302;28;97984;-66
2023/02/26 03:52:03;;;;;;;;;;;;;;;9.94;47.51;100426.16;4913254;28;98276;-67
2023/02/26 03:54:36;;;;;;;;;;;;;;;9.93;47.60;100428.03;4923178;28;98363;-66
2023/02/26 03:57:02;;;;;;;;;;;;;;;9.94;47.62;100434.22;4906922;28;98032;-66
2023/02/26 03:59:28;;;;;;;;;;;;;;;9.94;47.22;100436.91;4929574;28;98158;-67
2023/02/26 04:02:03;;;;;;;;;;;;;;;9.93;47.09;100432.63;4911183;28;98119;-66
2023/02/26 04:04:49;;;;;;;;;;;;;;;9.92;47.36;100422.94;4939955;28;99651;-66
2023/02/26 04:07:16;;;;;;;;;;;;;;;9.91;47.80;100429.38;4937656;28;98280;-66
2023/02/26 04:09:43;;;;;;;;;;;;;;;9.89;47.53;100435.03;4913165;28;97927;-66
2023/02/26 04:12:09;;;;;;;;;;;;;;;9.89;47.89;100437.72;4931401;28;98192;-66
2023/02/26 04:14:35;;;;;;;;;;;;;;;9.89;47.87;100442.28;4912154;28;98162;-66
2023/02/26 04:17:01;;;;;;;;;;;;;;;9.88;46.88;100438.78;4910904;28;97845;-66
2023/02/26 04:19:27;;;;;;;;;;;;;;;9.89;47.89;100448.47;4926020;28;98123;-67
2023/02/26 04:21:53;;;;;;;;;;;;;;;9.89;46.98;100450.38;4930508;28;98030;-67
2023/02/26 04:24:20;;;;;;;;;;;;;;;9.89;47.45;100453.06;4927703;28;98533;-67
2023/02/26 04:26:46;;;;;;;;;;;;;;;9.88;47.61;100454.94;4911409;28;98068;-67
2023/02/26 04:29:12;;;;;;;;;;;;;;;9.89;47.54;100463.84;4938606;28;98420;-67
2023/02/26 04:31:38;;;;;;;;;;;;;;;9.89;47.45;100461.13;4910592;28;99551;-67
2023/02/26 04:34:04;;;;;;;;;;;;;;;9.89;47.15;100469.22;4907076;28;99675;-68
2023/02/26 04:36:30;;;;;;;;;;;;;;;9.89;47.18;100471.91;4914354;28;97997;-68
2023/02/26 04:38:56;;;;;;;;;;;;;;;9.89;47.44;100480.78;4914947;28;98713;-66
2023/02/26 04:41:23;;;;;;;;;;;;;;;9.88;47.54;100481.88;4929042;28;98180;-66
2023/02/26 04:43:49;;;;;;;;;;;;;;;9.89;46.83;100477.28;4942474;28;99577;-66
2023/02/26 04:46:15;;;;;;;;;;;;;;;9.88;47.02;100481.88;4913566;28;97964;-67
2023/02/26 04:48:41;;;;;;;;;;;;;;;9.89;46.91;100490.75;4910202;28;97808;-67
2023/02/26 04:51:07;;;;;;;;;;;;;;;9.87;47.15;100498.31;4915972;28;98114;-67
2023/02/26 04:53:33;;;;;;;;;;;;;;;9.87;47.10;100493.72;4926692;28;99560;-66
2023/02/26 04:55:59;;;;;;;;;;;;;;;9.88;47.33;100498.03;4948500;28;98496;-67
2023/02/26 04:58:26;;;;;;;;;;;;;;;9.88;47.10;100500.72;4913818;28;98089;-67
2023/02/26 05:00:55;;;;;;;;;;;;;;;9.88;46.91;100508.00;4922801;28;98064;-66
2023/02/26 05:03:21;;;;;;;;;;;;;;;9.87;47.33;100501.00;4911385;28;100024;-67
2023/02/26 05:05:48;;;;;;;;;;;;;;;9.88;47.66;100506.09;4929632;28;99843;-66
2023/02/26 05:08:14;;;;;;;;;;;;;;;9.88;47.11;100505.31;4913629;28;97949;-68
2023/02/26 05:10:40;;;;;;;;;;;;;;;9.88;47.21;100508.81;4909442;28;97992;-67
2023/02/26 05:13:06;;;;;;;;;;;;;;;9.89;47.48;100512.28;4927108;28;98107;-67
2023/02/26 05:15:32;;;;;;;;;;;;;;;9.88;47.57;100513.38;4922477;28;98295;-67
2023/02/26 05:17:58;;;;;;;;;;;;;;;9.88;47.24;100519.56;4913351;28;97933;-66
2023/02/26 05:20:24;;;;;;;;;;;;;;;9.88;47.42;100524.94;4951973;28;98050;-67
2023/02/26 05:22:50;;;;;;;;;;;;;;;9.89;47.66;100528.44;4914098;28;98022;-67
2023/02/26 05:25:17;;;;;;;;;;;;;;;9.89;47.10;100531.94;4918125;28;98106;-67
2023/02/26 05:27:43;;;;;;;;;;;;;;;9.90;46.95;100535.44;4908245;28;98944;-68
2023/02/26 05:30:10;;;;;;;;;;;;;;;9.89;47.28;100542.72;4913631;28;97900;-67
2023/02/26 05:32:37;;;;;;;;;;;;;;;9.90;46.99;100552.41;4933633;28;98173;-67
2023/02/26 05:35:03;;;;;;;;;;;;;;;9.90;47.06;100554.31;4927645;28;99085;-67
2023/02/26 05:37:29;;;;;;;;;;;;;;;9.90;46.96;100554.31;4910634;28;98120;-67
2023/02/26 05:39:56;;;;;;;;;;;;;;;9.90;46.98;100559.69;4919482;28;98221;-68
2023/02/26 05:42:22;;;;;;;;;;;;;;;9.91;47.35;100564.03;4912401;28;98122;-67
2023/02/26 05:44:48;;;;;;;;;;;;;;;9.90;47.73;100563.19;4941945;28;99750;-67
2023/02/26 05:47:14;;;;;;;;;;;;;;;9.91;46.75;100566.72;4921904;28;99859;-67
2023/02/26 05:49:40;;;;;;;;;;;;;;;9.90;47.20;100576.66;4923554;28;98320;-68
2023/02/26 05:52:06;;;;;;;;;;;;;;;9.90;47.53;100579.34;4910713;28;99454;-67
2023/02/26 05:54:33;;;;;;;;;;;;;;;9.89;47.47;100583.09;4929190;28;100633;-68
2023/02/26 05:56:59;;;;;;;;;;;;;;;9.90;47.30;100582.03;4922253;28;99189;-67
2023/02/26 05:59:25;;;;;;;;;;;;;;;9.90;46.83;100592.81;4913280;28;98336;-67
2023/02/26 06:01:51;;;;;;;;;;;;;;;9.91;47.17;100601.72;4888335;28;100125;-67
2023/02/26 06:04:18;;;;;;;;;;;;;;;9.91;47.07;100605.22;4910262;28;97958;-67
2023/02/26 06:06:44;;;;;;;;;;;;;;;9.91;47.44;100602.53;4928865;28;98072;-67
2023/02/26 06:09:10;;;;;;;;;;;;;;;9.93;46.97;100619.22;4912073;28;99054;-67
2023/02/26 06:11:38;;;;;;;;;;;;;;;9.93;46.93;100616.53;4914176;28;100116;-67
2023/02/26 06:14:04;;;;;;;;;;;;;;;9.95;47.32;100610.91;4903790;28;97809;-67
2023/02/26 06:16:31;;;;;;;;;;;;;;;9.96;47.04;100616.00;4924259;28;97973;-67
2023/02/26 06:18:57;;;;;;;;;;;;;;;9.97;47.24;100624.91;4909181;28;98135;-67
2023/02/26 06:21:23;;;;;;;;;;;;;;;9.98;47.19;100627.34;4902180;28;98423;-67
2023/02/26 06:23:49;;;;;;;;;;;;;;;10.00;47.29;100629.78;4924124;28;98300;-66
2023/02/26 06:26:15;;;;;;;;;;;;;;;10.00;46.91;100633.28;4889307;28;98152;-66
2023/02/26 06:28:42;;;;;;;;;;;;;;;10.01;47.15;100637.59;4907256;28;99586;-66
2023/02/26 06:31:08;;;;;;;;;;;;;;;10.03;47.03;100640.03;4891405;28;98349;-66
2023/02/26 06:33:34;;;;;;;;;;;;;;;10.07;47.31;100643.84;4920077;28;98132;-67
2023/02/26 06:36:01;;;;;;;;;;;;;;;10.09;47.07;100647.06;4904098;28;101234;-67
2023/02/26 06:38:27;;;;;;;;;;;;;;;10.12;46.92;100654.63;4892980;28;98037;-66
2023/02/26 06:40:53;;;;;;;;;;;;;;;10.13;47.07;100653.56;4907572;28;98178;-67
2023/02/26 06:43:19;;;;;;;;;;;;;;;10.14;47.49;100655.19;4890152;28;100502;-66
2023/02/26 06:45:45;;;;;;;;;;;;;;;10.17;46.86;100660.03;4924178;28;97999;-66
2023/02/26 06:48:12;;;;;;;;;;;;;;;10.19;47.26;100663.31;4924058;28;98080;-67
2023/02/26 06:50:38;;;;;;;;;;;;;;;10.19;46.75;100663.31;4909537;28;99354;-66
2023/02/26 06:53:04;;;;;;;;;;;;;;;10.23;47.05;100666.28;4923157;28;98272;-67
2023/02/26 06:55:30;;;;;;;;;;;;;;;10.25;46.81;100667.66;4893972;28;99104;-66
2023/02/26 06:57:57;;;;;;;;;;;;;;;10.29;47.10;100665.25;4904852;28;100244;-66
2023/02/26 07:00:23;;;;;;;;;;;;;;;10.31;47.27;100680.13;4905214;28;98436;-66
2023/02/26 07:02:50;;;;;;;;;;;;;;;10.35;47.06;100676.91;4880825;28;98100;-68
2023/02/26 07:05:16;;;;;;;;;;;;;;;10.38;47.00;100687.97;4906060;28;101270;-66
2023/02/26 07:07:42;;;;;;;;;;;;;;;10.42;46.77;100685.56;4905344;28;98211;-66
2023/02/26 07:10:09;;;;;;;;;;;;;;;10.46;46.80;100681.28;4906541;28;100567;-66
2023/02/26 07:12:37;;;;;;;;;;;;;;;10.54;46.99;100689.69;4903407;28;98669;-66
2023/02/26 07:15:04;;;;;;;;;;;;;;;10.61;46.88;100692.16;4889012;28;98271;-66
2023/02/26 07:17:30;;;;;;;;;;;;;;;10.64;47.00;100699.69;4902468;28;98723;-66
2023/02/26 07:19:56;;;;;;;;;;;;;;;10.72;46.88;100704.59;4899392;28;99283;-66
2023/02/26 07:22:22;;;;;;;;;;;;;;;10.81;46.41;100704.91;4886730;28;99811;-66
2023/02/26 07:24:49;;;;;;;;;;;;;;;10.87;46.44;100709.25;4899646;28;98072;-66
2023/02/26 07:27:15;;;;;;;;;;;;;;;10.99;46.14;100717.13;4899597;28;98444;-66
2023/02/26 07:29:41;;;;;;;;;;;;;;;11.10;46.28;100720.66;4897569;28;98980;-65
2023/02/26 07:32:07;;;;;;;;;;;;;;;11.14;46.71;100727.97;4900852;28;98091;-69
2023/02/26 07:34:33;;;;;;;;;;;;;;;11.26;46.34;100733.13;4884380;28;98136;-66
2023/02/26 07:37:00;;;;;;;;;;;;;;;11.44;46.09;100734.53;4900814;28;98421;-66
2023/02/26 07:39:26;;;;;;;;;;;;;;;11.61;46.01;100735.09;4888277;28;99540;-68
2023/02/26 07:41:52;;;;;;;;;;;;;;;11.66;46.21;100737.81;4919350;28;98338;-66
2023/02/26 07:44:18;;;;;;;;;;;;;;;11.66;46.26;100742.41;4889220;28;98195;-67
2023/02/26 07:46:44;;;;;;;;;;;;;;;11.63;46.24;100740.22;4888095;28;98152;-67
2023/02/26 07:49:10;;;;;;;;;;;;;;;11.60;46.49;100749.69;4890049;28;98148;-67
2023/02/26 07:51:37;;;;;;;;;;;;;;;11.57;46.70;100755.63;4905818;28;98753;-66
2023/02/26 07:54:03;;;;;;;;;;;;;;;11.53;46.43;100757.22;4904015;28;99101;-66
2023/02/26 07:56:29;;;;;;;;;;;;;;;11.52;46.51;100756.44;4885036;28;98272;-67
2023/02/26 07:58:55;;;;;;;;;;;;;;;11.54;46.37;100765.06;4889145;28;98188;-66
2023/02/26 08:01:21;;;;;;;;;;;;;;;11.68;46.22;100767.25;4886340;28;99998;-66
2023/02/26 08:03:47;;;;;;;;;;;;;;;12.00;46.04;100767.06;4888181;28;98102;-66
2023/02/26 08:06:13;;;;;;;;;;;;;;;12.14;46.06;100772.72;4920011;28;98196;-67
2023/02/26 08:08:39;;;;;;;;;;;;;;;12.35;46.04;100768.94;4931045;28;99843;-66
2023/02/26 08:11:05;;;;;;;;;;;;;;;12.45;45.57;100781.63;4887696;28;100822;-66
2023/02/26 08:13:32;;;;;;;;;;;;;;;12.55;45.67;100778.94;4923627;28;100154;-66
2023/02/26 08:15:58;;;;;;;;;;;;;;;12.64;45.78;100785.41;4899688;28;98346;-66
2023/02/26 08:18:25;;;;;;;;;;;;;;;12.75;45.92;100792.41;4920277;28;98219;-67
2023/02/26 08:20:51;;;;;;;;;;;;;;;12.95;45.43;100796.97;4920913;28;98627;-66
2023/02/26 08:23:17;;;;;;;;;;;;;;;13.17;45.19;100803.94;4913974;28;98408;-65
2023/02/26 08:25:44;;;;;;;;;;;;;;;13.33;45.50;100799.31;4935572;28;98222;-66
2023/02/26 08:28:11;;;;;;;;;;;;;;;13.45;45.51;100797.88;4920324;28;98276;-66
2023/02/26 08:30:37;;;;;;;;;;;;;;;13.42;45.17;100811.16;4907758;28;97888;-67
2023/02/26 08:33:03;;;;;;;;;;;;;;;13.40;45.34;100806.03;4901609;28;98249;-67
2023/02/26 08:35:29;;;;;;;;;;;;;;;13.40;45.73;100816.03;4906533;28;97971;-67
2023/02/26 08:37:55;;;;;;;;;;;;;;;13.36;45.59;100818.53;4903794;28;98607;-67
2023/02/26 08:40:22;;;;;;;;;;;;;;;13.45;45.89;100824.16;4924447;28;99647;-66
2023/02/26 08:42:48;;;;;;;;;;;;;;;13.51;45.50;100825.75;4906098;28;98085;-66
2023/02/26 08:45:14;;;;;;;;;;;;;;;13.53;45.83;100833.59;4905645;28;98096;-67
2023/02/26 08:47:42;;;;;;;;;;;;;;;13.53;45.85;100845.25;4941905;28;99686;-66
2023/02/26 08:50:09;;;;;;;;;;;;;;;13.65;45.50;100842.22;4903617;28;98240;-67
2023/02/26 08:52:37;;;;;;;;;;;;;;;13.73;45.56;100845.16;4925009;28;98554;-67
2023/02/26 08:55:03;;;;;;;;;;;;;;;13.85;45.73;100854.84;4923354;28;98145;-67
2023/02/26 08:57:29;;;;;;;;;;;;;;;14.76;44.18;100847.13;4918237;28;98364;-68
2023/02/26 08:59:56;;;;;;;;;;;;;;;15.11;44.30;100849.50;4911613;28;98486;-66
2023/02/26 09:02:22;;;;;;;;;;;;;;;15.86;43.68;100845.34;4910210;28;99022;-67
2023/02/26 09:04:48;;;;;;;;;;;;;;;16.00;43.74;100850.88;4916034;28;97961;-67
2023/02/26 09:07:14;;;;;;;;;;;;;;;16.45;43.56;100857.50;4907768;28;100242;-69
2023/02/26 09:09:40;;;;;;;;;;;;;;;17.12;42.90;100866.13;4920800;28;98501;-67
2023/02/26 09:12:06;;;;;;;;;;;;;;;17.13;43.44;100862.31;4901927;28;98939;-66
2023/02/26 09:14:32;;;;;;;;;;;;;;;17.06;43.58;100863.84;4889130;28;117345;-66
2023/02/26 09:16:58;;;;;;;;;;;;;;;17.14;43.74;100874.03;4889813;28;98024;-67
2023/02/26 09:19:25;;;;;;;;;;;;;;;17.31;43.69;100885.13;4918597;28;97893;-67
2023/02/26 09:21:51;;;;;;;;;;;;;;;17.28;43.87;100885.72;4904540;28;98346;-68
2023/02/26 09:24:17;;;;;;;;;;;;;;;18.60;42.72;100883.97;4915774;28;98156;-68
2023/02/26 09:26:43;;;;;;;;;;;;;;;18.22;43.57;100895.22;4889654;28;99065;-68
2023/02/26 09:29:10;;;;;;;;;;;;;;;17.99;43.70;100899.03;4902579;28;98240;-68
2023/02/26 09:31:37;;;;;;;;;;;;;;;17.81;44.08;100901.59;4906802;28;98445;-68
2023/02/26 09:34:03;;;;;;;;;;;;;;;18.08;43.59;100916.28;4894829;28;98368;-68
2023/02/26 09:36:30;;;;;;;;;;;;;;;17.64;44.41;100913.09;4905732;28;98940;-67
2023/02/26 09:38:56;;;;;;;;;;;;;;;17.16;45.12;100932.50;4918299;28;101514;-66
2023/02/26 09:41:43;;;;;;;;;;;;;;;16.84;45.14;100930.63;4896699;28;99213;-68
2023/02/26 09:44:41;;;;;;;;;;;;;;;16.52;45.42;100931.41;4896640;28;98382;-68
2023/02/26 09:47:27;;;;;;;;;;;;;;;16.16;45.74;100942.78;4873245;28;128404;-68
2023/02/26 09:49:53;;;;;;;;;;;;;;;16.13;45.44;100943.38;4903056;28;97985;-66
2023/02/26 09:52:28;;;;;;;;;;;;;;;16.40;45.04;100945.44;4915655;28;98254;-68
2023/02/26 09:55:00;;;;;;;;;;;;;;;16.34;45.14;100941.16;4918844;28;98325;-66
2023/02/26 09:57:35;;;;;;;;;;;;;;;17.96;42.97;100940.53;4914100;28;100240;-66
2023/02/26 10:00:17;;;;;;;;;;;;;;;17.61;43.83;100948.31;4882643;28;102013;-66
2023/02/26 10:03:29;;;;;;;;;;;;;;;18.55;43.15;100944.13;4897781;28;98070;-66
2023/02/26 10:06:36;;;;;;;;;;;;;;;19.81;41.99;100943.91;4914471;28;98158;-68
2023/02/26 10:09:31;;;;;;;;;;;;;;;23.23;39.05;100940.72;4904307;28;99414;-67
2023/02/26 10:12:00;;;;;;;;;;;;;;;24.57;38.99;100949.22;4911996;28;98614;-70
2023/02/26 10:14:55;;;;;;;;;;;;;;;24.88;39.24;100956.78;4940728;28;98221;-67
2023/02/26 10:17:55;;;;;;;;;;;;;;;28.22;36.55;100966.84;4934489;28;99073;-67
2023/02/26 10:20:43;;;;;;;;;;;;;;;25.03;40.60;100974.47;4947664;28;99191;-66
2023/02/26 10:23:47;;;;;;;;;;;;;;;23.77;42.30;100975.47;4923416;28;98161;-70
2023/02/26 10:26:26;;;;;;;;;;;;;;;25.18;40.26;100965.47;4935586;28;98800;-70
2023/02/26 10:29:17;;;;;;;;;;;;;;;28.17;37.38;100966.34;4928347;28;98752;-70
2023/02/26 10:31:49;;;;;;;;;;;;;;;30.02;35.85;100970.22;4929701;28;98174;-69
2023/02/26 10:34:34;;;;;;;;;;;;;;;28.05;39.04;100984.00;4933987;28;98166;-67
2023/02/26 10:37:18;;;;;;;;;;;;;;;25.82;41.74;100982.84;4920551;28;98170;-70
2023/02/26 10:40:08;;;;;;;;;;;;;;;25.29;42.00;100977.56;4935398;28;99719;-68
2023/02/26 10:42:42;;;;;;;;;;;;;;;24.83;42.36;100981.81;4947190;28;98245;-66
2023/02/26 10:45:24;;;;;;;;;;;;;;;28.66;37.41;100984.84;4907594;28;99557;-70
2023/02/26 10:47:53;;;;;;;;;;;;;;;26.34;40.65;100981.66;4909388;28;98715;-70
2023/02/26 10:50:20;;;;;;;;;;;;;;;29.59;36.94;100986.59;4935408;28;98604;-70
2023/02/26 10:52:46;;;;;;;;;;;;;;;32.08;34.76;100999.75;4919708;28;98492;-70
2023/02/26 10:55:29;;;;;;;;;;;;;;;33.38;34.07;100995.16;4908487;28;100771;-71
2023/02/26 10:57:59;;;;;;;;;;;;;;;33.93;34.37;100995.06;4933827;28;98273;-67
2023/02/26 11:00:26;;;;;;;;;;;;;;;31.86;36.84;100989.84;4921191;28;98160;-67
2023/02/26 11:02:54;;;;;;;;;;;;;;;31.86;37.18;100992.63;4902025;28;118950;-71
2023/02/26 11:05:26;;;;;;;;;;;;;;;29.42;39.67;100987.22;4923533;28;99068;-71
2023/02/26 11:08:32;;;;;;;;;;;;;;;27.85;41.32;100989.66;4929169;28;98705;-67
2023/02/26 11:11:03;;;;;;;;;;;;;;;26.24;43.06;100999.59;4920391;28;99038;-70
2023/02/26 11:13:31;;;;;;;;;;;;;;;25.13;43.77;100987.78;4923488;28;98342;-66
2023/02/26 11:16:02;;;;;;;;;;;;;;;24.14;44.41;100997.50;4931004;28;99179;-67
2023/02/26 11:18:40;;;;;;;;;;;;;;;23.23;45.26;101000.41;4920464;28;101091;-70
2023/02/26 11:21:07;;;;;;;;;;;;;;;22.40;45.54;100999.34;4919421;28;98249;-66
2023/02/26 11:23:33;;;;;;;;;;;;;;;21.83;45.73;100999.81;4921570;28;98561;-66
2023/02/26 11:26:07;;;;;;;;;;;;;;;21.37;45.56;101004.16;4921217;28;98293;-69
2023/02/26 11:28:42;;;;;;;;;;;;;;;21.04;45.59;101006.63;4904344;28;100178;-67
2023/02/26 11:31:10;;;;;;;;;;;;;;;20.69;45.82;101003.13;4919137;28;98092;-68
2023/02/26 11:33:38;;;;;;;;;;;;;;;20.34;45.84;101005.78;4927741;28;98265;-69
2023/02/26 11:36:13;;;;;;;;;;;;;;;20.19;45.72;101007.06;4945782;28;98508;-70
2023/02/26 11:38:39;;;;;;;;;;;;;;;20.22;45.16;101011.91;4909314;28;99378;-70
2023/02/26 11:41:05;;;;;;;;;;;;;;;20.01;45.53;101019.09;4919359;28;98346;-67
2023/02/26 11:43:42;;;;;;;;;;;;;;;19.67;45.78;101017.84;4929752;28;98571;-67
2023/02/26 11:46:08;;;;;;;;;;;;;;;19.46;45.96;101019.50;4907478;28;98861;-70
2023/02/26 11:48:45;;;;;;;;;;;;;;;19.70;45.29;101021.88;4936135;28;98416;-69
2023/02/26 11:51:15;;;;;;;;;;;;;;;20.04;44.70;101013.81;4926229;28;98915;-69
2023/02/26 11:54:00;;;;;;;;;;;;;;;19.92;44.76;101012.78;4932128;28;98059;-66
2023/02/26 11:56:29;;;;;;;;;;;;;;;19.61;45.17;101017.19;4918058;28;97940;-69
2023/02/26 11:58:57;;;;;;;;;;;;;;;19.12;45.70;101018.16;4938054;28;97944;-69
2023/02/26 12:01:26;;;;;;;;;;;;;;;18.68;46.23;101017.00;4907276;28;99504;-67
2023/02/26 12:03:53;;;;;;;;;;;;;;;18.27;46.21;101017.88;4920339;28;98141;-69
2023/02/26 12:06:25;;;;;;;;;;;;;;;17.97;46.40;101021.25;4906916;28;100326;-67
2023/02/26 12:08:52;;;;;;;;;;;;;;;17.70;46.42;101025.56;4907540;28;98257;-66
2023/02/26 12:11:50;;;;;;;;;;;;;;;17.59;46.43;101029.56;4913542;28;98468;-68
2023/02/26 12:14:25;;;;;;;;;;;;;;;17.48;46.29;101037.13;4942534;28;98075;-69
2023/02/26 12:17:19;;;;;;;;;;;;;;;17.34;46.17;101047.19;4936875;28;99728;-68
2023/02/26 12:19:53;;;;;;;;;;;;;;;17.09;46.35;101032.88;4904332;28;98129;-66
2023/02/26 12:22:41;;;;;;;;;;;;;;;16.88;46.28;101043.28;4922285;28;99631;-68
2023/02/26 12:25:35;;;;;;;;;;;;;;;16.69;46.35;101037.81;4924625;28;98122;-67
2023/02/26 12:28:13;;;;;;;;;;;;;;;16.51;46.51;101043.25;4937786;28;98300;-68
2023/02/26 12:30:57;;;;;;;;;;;;;;;16.37;46.39;101041.25;4941492;28;99249;-66
2023/02/26 12:33:57;;;;;;;;;;;;;;;16.30;46.30;101048.13;4943243;28;98335;-67
2023/02/26 12:37:02;;;;;;;;;;;;;;;16.24;46.27;101046.59;4879346;28;99554;-66
2023/02/26 12:39:51;;;;;;;;;;;;;;;16.22;46.20;101054.22;4911480;28;99303;-66
2023/02/26 12:42:36;;;;;;;;;;;;;;;16.28;45.90;101051.16;4923232;28;98559;-67
2023/02/26 12:45:21;;;;;;;;;;;;;;;16.40;45.61;101050.75;4934902;28;98186;-67
2023/02/26 12:48:02;;;;;;;;;;;;;;;16.49;45.68;101054.41;4923244;28;98468;-69
2023/02/26 12:50:41;;;;;;;;;;;;;;;16.50;45.66;101058.75;4946511;28;98033;-69
2023/02/26 12:53:13;;;;;;;;;;;;;;;16.43;45.67;101055.59;4921081;28;98051;-67
2023/02/26 12:55:59;;;;;;;;;;;;;;;16.35;45.65;101061.69;4949373;28;98077;-69
2023/02/26 12:58:50;;;;;;;;;;;;;;;16.23;45.80;101064.00;4924429;28;98190;-67
2023/02/26 13:01:49;;;;;;;;;;;;;;;16.13;45.80;101071.19;4937635;28;98189;-66